x

Yucatan Basin - 120 Nm Ese Of Cozumel, Mx (42056) Wave Buoy

2:50am - Wed 28th Jan 2015 All times are CST. -6 hours from GMT.

  • Sig Wave height 3.6ft
  • Swell Direction
  • Peak Period 8s
  • Average Period 5s
  • Wind
    18mph, 25mph gusts
  • Sea Temp 81°f
  • Air Temp 76°f
  • Sea Pressure 1017.3mb
  •  Yucatan Basin - 120 Nm Ese Of Cozumel, Mx
  •  Yucatan Basin - 120 Nm Ese Of Cozumel, Mx

More Historic Weather Station data

Upgrade to MSW Pro to gain access to the past 30 days of data for over 8000 Wavebouys and Weather Stations around the globe.

Join Pro

Comparision Forecast

View Surf forecast
   
Wed 01/28 2:50am 3.5ft 8s 5s 18 25 mph 1017.3mb 81f 76f
1:50am 4ft 9s 5s 16 20 mph 1017.5mb 81f 76f
12:50am 3.5ft 9s 5s 18 22 mph 1017.8mb 81f 76f
Tue 01/27 11:50pm 3.5ft 10s 5s 16 20 mph 1018mb 81f 76f
10:50pm 4ft 10s 5s 16 18 mph 1018.3mb 81f 76f
9:50pm 4ft 10s 5s 16 18 mph 1018.8mb 81f 76f
8:50pm 4ft 8s 5s 13 16 mph 1018.7mb 81f 76f
7:50pm 4.5ft 10s 6s 16 18 mph 1018.3mb 81f 76f
6:50pm 4ft 10s 5s 16 20 mph 1017.8mb 81f 77f
5:50pm 5ft 10s 5s 16 18 mph 1017.5mb 81f 76f
4:50pm 5ft 10s 6s 13 18 mph 1017.2mb 81f 76f
3:50pm 4.5ft 10s 5s 16 22 mph 1016.7mb 81f 76f
2:50pm 4.5ft 10s 5s 16 20 mph 1016.5mb 81f 76f
1:50pm 4.5ft 10s 6s 13 18 mph 1016.7mb 81f 76f
12:50pm 4.5ft 10s 6s 13 18 mph 1017.1mb 81f 76f
11:50am 4.5ft 10s 6s 13 18 mph 1017.9mb 81f 76f
10:50am 4.5ft 11s 6s 16 20 mph 1018.5mb 81f 76f
9:50am 5ft 9s 6s 13 18 mph 1019mb 81f 76f
8:50am 5ft 8s 5s 13 16 mph 1019.1mb 81f 76f
7:50am 4.5ft 7s 5s 16 20 mph 1018.6mb 81f 76f
6:50am 4.5ft 6s 5s 16 20 mph 1017.9mb 81f 76f
5:50am 5ft 6s 5s 18 22 mph 1017.5mb 81f 76f
4:50am 5ft 7s 5s 18 25 mph 1017.1mb 81f 76f
3:50am 4.5ft 6s 5s 18 22 mph 1016.7mb 81f 76f
2:50am 4.5ft 7s 5s 20 25 mph 1016.6mb 81f 76f
1:50am 4.5ft 6s 5s 18 22 mph 1016.8mb 81f 76f
12:50am 4.5ft 7s 5s 18 22 mph 1017.2mb 81f 77f
Mon 01/26 11:50pm 4.5ft 7s 5s 18 22 mph 1017.4mb 81f 78f
10:50pm 4.5ft 7s 5s 20 22 mph 1017.7mb 81f 77f
9:50pm 4.5ft 7s 5s 16 18 mph 1018.2mb 81f 77f
8:50pm 4.5ft 6s 5s 16 18 mph 1017.9mb 81f 78f
7:50pm 4.5ft 6s 5s 18 25 mph 1017.5mb 81f 77f
6:50pm 4.5ft 6s 5s 20 25 mph 1017mb 81f 77f
5:50pm 4.5ft 6s 5s 20 25 mph 1016.4mb 81f 77f
4:50pm 4ft 6s 4s 20 25 mph 1016.1mb 81f 77f
3:50pm 3.5ft 5s 4s 18 22 mph 1015.9mb 81f 77f
2:50pm 3.5ft 5s 4s 20 25 mph 1015.4mb 81f 77f
1:50pm 3.5ft 5s 4s 13 20 mph 1016mb 81f 76f
12:50pm 3.5ft 4s 5s 16 20 mph 1016.5mb 81f 76f
11:50am 3.5ft 5s 4s 16 22 mph 1017.5mb 81f 76f
10:50am 3.5ft 8s 5s 16 20 mph 1018mb 81f 76f
9:50am 3.5ft 8s 5s 16 20 mph 1018.2mb 81f 77f
8:50am 3.5ft 8s 5s 16 20 mph 1018.3mb 81f 77f
7:50am 3.5ft 9s 5s 16 18 mph 1017.9mb 81f 76f
6:50am 3.5ft 9s 5s 16 20 mph 1017.5mb 81f 76f
5:50am 4ft 6s 5s 13 18 mph 1017.2mb 81f 76f
4:50am 4ft 6s 5s 13 20 mph 1016.8mb 81f 76f
3:50am 4ft 9s 5s 16 20 mph 1016.3mb 81f 76f
2:50am 4.5ft 9s 5s 18 22 mph 1016.1mb 81f 76f
1:50am 4.5ft 9s 5s 18 20 mph 1016mb 81f 76f
12:50am 4.5ft 9s 5s 16 18 mph 1016.2mb 81f 76f
Sun 01/25 11:50pm 4.5ft 10s 5s 16 18 mph 1016.3mb 81f 76f
10:50pm 4.5ft 10s 5s 18 22 mph 1016.8mb 81f 76f
9:50pm 4.5ft 10s 5s 18 22 mph 1016.6mb 81f 76f
8:50pm 4.5ft 10s 5s 16 18 mph 1016.3mb 81f 76f
7:50pm 5ft 10s 6s 16 18 mph 1016.2mb 81f 76f
6:50pm 5ft 6s 6s 16 20 mph 1015.9mb 81f 76f
5:50pm 5ft 10s 5s 13 18 mph 1015.4mb 81f 76f
4:50pm 5ft 10s 6s 13 18 mph 1015.1mb 81f 76f
3:50pm 5ft 6s 6s 16 18 mph 1014.7mb 81f 76f
2:50pm 5ft 11s 5s 16 20 mph 1014mb 81f 76f
1:50pm 5ft 6s 6s 18 20 mph 1014.3mb 81f 76f
12:50pm 5ft 6s 5s 18 20 mph 1014.8mb 81f 75f
11:50am 5ft 11s 6s 18 22 mph 1015.8mb 81f 76f
10:50am 6ft 11s 6s 20 25 mph 1016.4mb 81f 76f
9:50am 6ft 10s 6s 20 22 mph 1016.8mb 81f 76f
8:50am 6ft 10s 6s 18 22 mph 1017mb 81f 76f
7:50am 6ft 10s 6s 20 25 mph 1016.2mb 81f 77f
6:50am 6ft 10s 6s 20 22 mph 1015.6mb 81f 76f
5:50am 5.5ft 10s 6s 18 22 mph 1015.1mb 81f 76f
4:50am 5.5ft 6s 5s 20 25 mph 1014.4mb 81f 77f
3:50am 6ft 6s 6s 22 25 mph 1013.9mb 81f 77f
2:50am 6ft 7s 6s 20 25 mph 1014.2mb 81f 77f
1:50am 6.5ft 8s 6s 20 22 mph 1014.7mb 81f 77f
12:50am 6.5ft 9s 6s 18 22 mph 1015.2mb 81f 77f
Sat 01/24 11:50pm 7ft 7s 6s 22 27 mph 1015.3mb 81f 75f
10:50pm 8ft 8s 6s 22 25 mph 1015.5mb 81f 78f
9:50pm 8ft 8s 6s 22 27 mph 1015.7mb 81f 78f
8:50pm 8.5ft 8s 6s 22 27 mph 1015.7mb 81f 77f
7:50pm 7ft 8s 6s 22 27 mph 1015.7mb 81f 77f
6:50pm 8ft 8s 6s 20 22 mph 1015.4mb 81f 74f
5:50pm 6ft 7s 5s 22 27 mph 1014.8mb 81f 74f
4:50pm 5ft 6s 5s 22 27 mph 1014.3mb 81f 74f
3:50pm 4.5ft 4s 4s 25 29 mph 1013.7mb 81f 75f
2:50pm 3ft 4s 4s 22 27 mph 1013.4mb 81f 76f
1:50pm 2.5ft 7s 4s 20 25 mph 1013.9mb 81f 77f
12:50pm 2.5ft 6s 4s 9 11 mph 1014.7mb 82f 77f
11:50am 2.5ft 6s 5s 18 22 mph 1015.4mb 82f 76f
10:50am 3ft 7s 5s 11
mph
1016.6mb 82f 81f